Time;durP1;ratioP1;P1;durP2;ratioP2;P2;SDS_P1;SDS_P2;PMS_P1;PMS_P2;Temp;Humidity;BMP_temperature;BMP_pressure;BME280_temperature;BME280_humidity;BME280_pressure;Samples;Min_cycle;Max_cycle;Signal;HPM_P1;HPM_P2
2021/12/17 00:05:11;;;;;;;50.27;28.90;;;11.90;99.90;;;;;;4942394;28;20460;-84
2021/12/17 00:07:39;;;;;;;54.63;29.03;;;11.90;99.90;;;;;;4950063;28;21087;-86
2021/12/17 00:10:15;;;;;;;47.23;27.40;;;11.90;99.90;;;;;;4948999;28;20484;-85
2021/12/17 00:12:43;;;;;;;52.13;30.70;;;11.80;99.90;;;;;;4950897;28;20460;-86
2021/12/17 00:15:15;;;;;;;50.00;28.00;;;11.80;99.90;;;;;;4946524;28;20469;-86
2021/12/17 00:17:54;;;;;;;55.93;28.50;;;11.90;99.90;;;;;;4950255;28;20484;-85
2021/12/17 00:53:30;;;;;;;46.30;26.43;;;12.10;99.90;;;;;;4947044;28;20453;-86
2021/12/17 00:55:57;;;;;;;45.60;23.93;;;12.00;99.90;;;;;;4928307;28;20564;-87
2021/12/17 00:58:27;;;;;;;37.50;21.23;;;11.90;99.90;;;;;;4932429;28;20548;-84
2021/12/17 01:00:57;;;;;;;37.53;24.57;;;11.90;99.90;;;;;;4929013;28;20485;-87
2021/12/17 01:03:44;;;;;;;34.27;23.37;;;11.70;99.90;;;;;;4938400;28;20470;-87
2021/12/17 01:06:17;;;;;;;34.17;20.70;;;11.80;99.90;;;;;;4932832;28;20524;-86
2021/12/17 01:08:47;;;;;;;33.70;21.17;;;11.80;99.90;;;;;;4932466;28;21850;-86
2021/12/17 01:11:28;;;;;;;37.10;21.07;;;11.90;99.90;;;;;;4933183;28;20460;-87
2021/12/17 01:13:56;;;;;;;30.53;20.47;;;11.70;99.90;;;;;;4933299;28;20461;-86
2021/12/17 01:16:30;;;;;;;31.03;19.13;;;11.70;99.90;;;;;;4927670;28;20509;-86
2021/12/17 01:24:30;;;;;;;28.80;16.77;;;11.70;99.90;;;;;;4929531;28;20649;-87
2021/12/17 01:35:32;;;;;;;36.47;20.37;;;11.80;99.90;;;;;;4928727;28;20462;-87
2021/12/17 01:43:31;;;;;;;45.77;24.87;;;11.80;99.90;;;;;;4932573;28;20462;-85
2021/12/17 01:45:59;;;;;;;33.27;20.57;;;11.90;99.90;;;;;;4934330;28;20485;-85
2021/12/17 01:48:36;;;;;;;36.07;21.47;;;11.80;99.90;;;;;;4935593;28;20450;-86
2021/12/17 01:59:36;;;;;;;35.77;19.77;;;11.80;99.90;;;;;;4943753;28;20458;-86
2021/12/17 02:02:06;;;;;;;39.20;21.67;;;11.70;99.90;;;;;;4918812;28;20481;-84
2021/12/17 02:04:36;;;;;;;39.93;21.93;;;11.70;99.90;;;;;;4856400;28;20465;-84
2021/12/17 02:07:04;;;;;;;34.10;19.20;;;11.70;99.90;;;;;;4869767;28;20471;-87
2021/12/17 02:12:28;;;;;;;34.40;19.50;;;11.60;99.90;;;;;;4917519;28;20457;-87
2021/12/17 02:32:02;;;;;;;30.90;15.93;;;11.30;99.90;;;;;;4935052;28;20467;-87
2021/12/17 02:37:27;;;;;;;25.90;15.30;;;11.30;99.90;;;;;;4934583;28;20496;-86
2021/12/17 02:45:36;;;;;;;27.07;17.23;;;11.50;99.90;;;;;;4905052;28;20467;-86
2021/12/17 02:48:16;;;;;;;26.50;16.43;;;11.70;99.90;;;;;;4931625;28;20464;-86
2021/12/17 02:50:55;;;;;;;24.23;16.10;;;11.50;99.90;;;;;;4923956;28;20543;-86
2021/12/17 02:53:24;;;;;;;33.37;18.70;;;11.40;99.90;;;;;;4902939;28;20658;-85
2021/12/17 02:56:00;;;;;;;30.37;18.47;;;11.30;99.90;;;;;;4907152;28;20496;-83
2021/12/17 02:58:30;;;;;;;28.80;16.47;;;11.50;99.90;;;;;;4908078;28;20460;-84
2021/12/17 03:00:58;;;;;;;26.90;17.10;;;11.70;99.90;;;;;;4913316;28;20579;-84
2021/12/17 03:03:33;;;;;;;28.17;16.20;;;11.50;99.90;;;;;;4924696;28;20460;-85
2021/12/17 03:05:59;;;;;;;26.10;16.77;;;11.50;99.90;;;;;;4925732;28;20494;-86
2021/12/17 03:08:29;;;;;;;27.80;16.17;;;11.40;99.90;;;;;;4927049;28;20579;-85
2021/12/17 03:10:58;;;;;;;27.03;16.80;;;11.40;99.90;;;;;;4925289;28;20472;-86
2021/12/17 03:13:30;;;;;;;32.17;18.40;;;11.50;99.90;;;;;;4923641;28;20485;-87
2021/12/17 03:16:06;;;;;;;29.17;17.00;;;11.80;99.90;;;;;;4924317;28;20483;-85
2021/12/17 03:18:56;;;;;;;26.40;16.40;;;11.70;99.90;;;;;;4926377;28;20461;-86
2021/12/17 03:24:05;;;;;;;21.50;13.90;;;11.40;99.90;;;;;;4928154;28;20448;-85
2021/12/17 03:26:33;;;;;;;22.10;13.73;;;11.70;99.90;;;;;;4925979;28;20488;-86
2021/12/17 03:29:04;;;;;;;24.63;15.00;;;11.50;99.90;;;;;;4930483;28;20445;-86
2021/12/17 03:31:31;;;;;;;27.77;16.20;;;11.40;99.90;;;;;;4899618;28;20476;-85
2021/12/17 03:34:15;;;;;;;29.70;15.30;;;11.60;99.90;;;;;;4844910;28;20472;-85
2021/12/17 03:36:43;;;;;;;21.00;14.03;;;11.40;99.90;;;;;;4920153;28;20550;-85
2021/12/17 03:39:10;;;;;;;20.87;12.73;;;11.70;99.90;;;;;;4924323;28;20469;-87
2021/12/17 03:41:38;;;;;;;19.13;12.97;;;11.80;99.90;;;;;;4918453;28;20510;-85
2021/12/17 03:44:07;;;;;;;24.30;14.23;;;11.70;99.90;;;;;;4921342;28;21019;-85
2021/12/17 03:46:35;;;;;;;19.27;12.43;;;11.60;99.90;;;;;;4921220;28;20468;-85
2021/12/17 03:49:03;;;;;;;24.27;13.60;;;11.50;99.90;;;;;;4923559;28;20473;-84
2021/12/17 03:51:30;;;;;;;21.13;14.30;;;11.30;99.90;;;;;;4919187;28;20470;-84
2021/12/17 03:53:59;;;;;;;23.30;14.00;;;11.60;99.90;;;;;;4920960;28;20467;-84
2021/12/17 03:56:27;;;;;;;20.27;11.50;;;11.60;99.90;;;;;;4923555;28;22183;-86
2021/12/17 03:58:55;;;;;;;19.77;12.43;;;11.70;99.90;;;;;;4929216;28;20473;-86
2021/12/17 04:01:22;;;;;;;23.10;13.80;;;11.70;99.90;;;;;;4927168;28;20493;-84
2021/12/17 04:03:49;;;;;;;21.43;14.30;;;11.70;99.90;;;;;;4923088;28;20456;-86
2021/12/17 04:06:16;;;;;;;22.57;12.80;;;11.60;99.90;;;;;;4916087;28;20477;-84
2021/12/17 04:08:43;;;;;;;27.63;15.97;;;11.60;99.90;;;;;;4920317;28;20450;-83
2021/12/17 04:11:16;;;;;;;27.50;16.10;;;11.60;99.90;;;;;;4923953;28;20472;-83
2021/12/17 04:14:07;;;;;;;26.77;17.07;;;11.60;99.90;;;;;;4924665;28;20454;-85
2021/12/17 04:16:48;;;;;;;17.30;10.60;;;11.60;99.90;;;;;;4921228;28;20487;-85
2021/12/17 04:19:19;;;;;;;16.90;10.23;;;11.30;99.90;;;;;;4936829;28;20468;-86
2021/12/17 04:21:52;;;;;;;16.17;10.80;;;11.10;99.90;;;;;;4923411;28;20497;-85
2021/12/17 04:24:19;;;;;;;16.17;10.57;;;11.30;99.90;;;;;;4917837;28;20483;-83
2021/12/17 04:26:46;;;;;;;20.80;13.60;;;11.50;99.90;;;;;;4930237;28;20515;-84
2021/12/17 04:29:13;;;;;;;24.53;14.70;;;11.60;99.90;;;;;;4934785;28;20465;-82
2021/12/17 04:31:54;;;;;;;24.03;14.00;;;11.60;99.90;;;;;;4923044;28;22384;-86
2021/12/17 04:34:22;;;;;;;22.97;14.50;;;11.70;99.90;;;;;;4922114;28;20459;-87
2021/12/17 04:36:53;;;;;;;18.80;11.63;;;11.80;99.90;;;;;;4922122;28;20504;-83
2021/12/17 04:39:22;;;;;;;22.93;13.40;;;11.70;99.90;;;;;;4920759;28;20461;-80
2021/12/17 04:45:43;;;;;;;22.97;13.90;;;11.60;99.90;;;;;;4943160;28;20465;-82
2021/12/17 04:59:35;;;;;;;24.77;13.20;;;11.60;99.90;;;;;;4922058;28;20464;-84
2021/12/17 05:02:03;;;;;;;18.50;12.47;;;11.40;99.90;;;;;;4921248;28;20506;-85
2021/12/17 05:04:30;;;;;;;23.30;13.60;;;11.50;99.90;;;;;;4919375;28;20464;-86
2021/12/17 05:06:57;;;;;;;19.10;12.50;;;11.50;99.90;;;;;;4921733;28;20476;-86
2021/12/17 05:09:39;;;;;;;22.90;13.90;;;11.50;99.90;;;;;;4917930;28;20527;-87
2021/12/17 05:20:43;;;;;;;22.57;12.93;;;11.60;99.90;;;;;;4924168;28;20458;-86
2021/12/17 05:23:10;;;;;;;23.17;13.50;;;11.60;99.90;;;;;;4913625;28;20576;-84
2021/12/17 05:25:37;;;;;;;21.80;13.40;;;11.40;99.90;;;;;;4934279;28;20482;-83
2021/12/17 05:28:04;;;;;;;19.33;12.27;;;11.40;99.90;;;;;;4921594;28;21013;-85
2021/12/17 05:30:33;;;;;;;16.90;11.73;;;11.30;99.90;;;;;;4923645;28;20465;-86
2021/12/17 05:33:01;;;;;;;16.10;11.13;;;11.40;99.90;;;;;;4918112;28;20467;-84
2021/12/17 05:35:28;;;;;;;17.20;10.90;;;11.40;99.90;;;;;;4931061;28;20524;-84
2021/12/17 05:37:55;;;;;;;15.90;10.70;;;11.30;99.90;;;;;;4919455;28;20485;-82
2021/12/17 05:40:22;;;;;;;16.30;9.70;;;11.40;99.90;;;;;;4923710;28;20459;-86
2021/12/17 05:42:50;;;;;;;19.90;11.03;;;11.50;99.90;;;;;;4899814;28;21338;-85
2021/12/17 05:45:37;;;;;;;18.70;11.27;;;11.60;99.90;;;;;;4851844;28;20548;-84
2021/12/17 05:48:09;;;;;;;20.40;12.17;;;11.60;99.90;;;;;;4841043;28;20975;-83
2021/12/17 05:50:41;;;;;;;15.03;11.07;;;11.30;99.90;;;;;;4842176;28;21763;-85
2021/12/17 05:53:20;;;;;;;17.97;10.53;;;11.30;99.90;;;;;;4897888;28;20544;-83
2021/12/17 05:55:46;;;;;;;19.30;11.80;;;11.20;99.90;;;;;;4928608;28;20830;-86
2021/12/17 05:58:14;;;;;;;16.30;11.47;;;11.30;99.90;;;;;;4924427;28;20600;-85
2021/12/17 06:00:42;;;;;;;16.90;10.77;;;11.50;99.90;;;;;;4921261;28;20465;-86
2021/12/17 06:03:09;;;;;;;18.30;11.37;;;11.70;99.90;;;;;;4918417;28;20498;-87
2021/12/17 06:05:37;;;;;;;19.60;12.10;;;11.70;99.90;;;;;;4919136;28;21918;-84
2021/12/17 06:08:04;;;;;;;19.07;11.20;;;11.70;99.90;;;;;;4914655;28;20974;-84
2021/12/17 06:10:32;;;;;;;21.67;12.20;;;11.70;99.90;;;;;;4921516;28;21697;-86
2021/12/17 06:12:59;;;;;;;17.33;11.23;;;11.80;99.90;;;;;;4918507;28;20466;-85
2021/12/17 06:15:26;;;;;;;17.90;10.80;;;11.80;99.90;;;;;;4921271;28;20472;-86
2021/12/17 06:17:54;;;;;;;17.50;11.60;;;11.80;99.90;;;;;;4920873;28;20856;-85
2021/12/17 06:20:23;;;;;;;18.60;11.57;;;11.70;99.90;;;;;;4915980;28;20523;-85
2021/12/17 06:22:52;;;;;;;21.73;11.70;;;11.60;99.90;;;;;;4917456;28;20505;-84
2021/12/17 06:25:18;;;;;;;18.57;11.67;;;11.60;99.90;;;;;;4921952;28;20539;-84
2021/12/17 06:27:46;;;;;;;20.90;13.20;;;11.50;99.90;;;;;;4923084;28;20481;-86
2021/12/17 06:30:15;;;;;;;16.97;12.10;;;11.50;99.90;;;;;;4924050;28;20468;-87
2021/12/17 06:32:42;;;;;;;18.70;11.23;;;11.60;99.90;;;;;;4922967;28;20457;-84
2021/12/17 06:35:09;;;;;;;19.17;11.07;;;11.50;99.90;;;;;;4928307;28;20461;-85
2021/12/17 06:37:38;;;;;;;20.03;11.73;;;11.40;99.90;;;;;;4938542;28;20520;-84
2021/12/17 06:40:05;;;;;;;17.77;11.73;;;11.30;99.90;;;;;;4925178;28;20461;-84
2021/12/17 06:42:32;;;;;;;20.50;11.53;;;11.40;99.90;;;;;;4925013;28;20483;-86
2021/12/17 06:45:03;;;;;;;20.87;11.97;;;11.40;99.90;;;;;;4925656;28;20467;-84
2021/12/17 06:47:33;;;;;;;16.70;11.33;;;11.40;99.90;;;;;;4928057;28;20465;-84
2021/12/17 07:06:09;;;;;;;27.40;14.67;;;11.20;99.90;;;;;;4929827;28;20489;-85
2021/12/17 07:09:34;;;;;;;23.43;12.83;;;11.10;99.90;;;;;;4927950;28;20463;-85
2021/12/17 07:17:37;;;;;;;21.67;13.23;;;11.20;99.90;;;;;;4928682;28;20499;-85
2021/12/17 07:34:11;;;;;;;23.80;15.07;;;11.50;99.90;;;;;;4926196;28;22210;-87
2021/12/17 07:36:44;;;;;;;22.97;16.70;;;11.60;99.90;;;;;;4928918;28;20477;-86
2021/12/17 07:39:15;;;;;;;23.03;15.37;;;11.40;99.90;;;;;;4926508;28;20491;-84
2021/12/17 07:41:43;;;;;;;22.83;15.23;;;11.70;99.90;;;;;;4923116;28;20480;-85
2021/12/17 07:44:10;;;;;;;21.13;13.80;;;11.70;99.90;;;;;;4922768;28;20461;-86
2021/12/17 07:46:43;;;;;;;28.10;16.83;;;11.90;99.90;;;;;;4922776;28;20481;-86
2021/12/17 07:49:10;;;;;;;23.70;16.57;;;11.80;99.90;;;;;;4926489;28;21760;-85
2021/12/17 07:51:37;;;;;;;24.40;16.20;;;11.70;99.90;;;;;;4921656;28;20460;-85
2021/12/17 07:54:04;;;;;;;22.40;13.53;;;11.80;99.90;;;;;;4937548;28;20471;-91
2021/12/17 07:56:37;;;;;;;30.50;14.60;;;11.70;99.90;;;;;;4941817;28;20540;-88
2021/12/17 07:59:06;;;;;;;20.63;13.37;;;11.70;99.90;;;;;;4925795;28;20478;-85
2021/12/17 08:01:34;;;;;;;23.07;14.60;;;11.60;99.90;;;;;;4924671;28;20466;-85
2021/12/17 08:04:03;;;;;;;28.07;15.40;;;11.60;99.90;;;;;;4920298;28;21313;-85
2021/12/17 08:06:34;;;;;;;24.10;15.57;;;11.60;99.90;;;;;;4925240;28;20751;-85
2021/12/17 08:09:01;;;;;;;25.80;14.27;;;11.60;99.90;;;;;;4927356;28;20461;-88
2021/12/17 08:11:36;;;;;;;23.77;15.27;;;11.40;99.90;;;;;;4906267;28;20501;-85
2021/12/17 08:14:14;;;;;;;24.93;14.80;;;11.30;99.90;;;;;;4895848;28;20643;-85
2021/12/17 08:27:49;;;;;;;26.90;17.57;;;11.70;99.90;;;;;;4930337;28;20484;-84
2021/12/17 08:30:27;;;;;;;25.87;15.60;;;11.50;99.90;;;;;;4928835;28;20569;-84
2021/12/17 08:32:54;;;;;;;27.70;16.00;;;11.40;99.90;;;;;;4928068;28;22116;-83
2021/12/17 08:35:21;;;;;;;26.07;15.87;;;11.60;99.90;;;;;;4898889;28;20480;-84
2021/12/17 08:37:48;;;;;;;27.77;15.97;;;11.60;99.90;;;;;;4851657;28;21039;-84
2021/12/17 08:40:30;;;;;;;30.07;16.53;;;11.60;99.90;;;;;;4836513;28;20455;-84
2021/12/17 08:43:01;;;;;;;26.27;17.13;;;11.50;99.90;;;;;;4914305;28;20535;-87
2021/12/17 08:45:28;;;;;;;25.50;16.60;;;11.40;99.90;;;;;;4923799;28;20487;-87
2021/12/17 08:47:58;;;;;;;34.10;17.70;;;11.40;99.90;;;;;;4929427;28;21623;-86
2021/12/17 08:50:25;;;;;;;31.03;17.83;;;11.40;99.90;;;;;;4928166;28;20476;-86
2021/12/17 08:52:52;;;;;;;28.47;17.30;;;11.30;99.90;;;;;;4922990;28;20454;-83
2021/12/17 08:55:19;;;;;;;36.50;19.60;;;11.30;99.90;;;;;;4917699;28;20461;-83
2021/12/17 08:57:48;;;;;;;32.00;19.57;;;11.20;99.90;;;;;;4916845;28;20498;-88
2021/12/17 09:00:15;;;;;;;24.60;16.97;;;11.10;99.90;;;;;;4888067;28;20479;-83
2021/12/17 09:02:44;;;;;;;31.70;19.80;;;11.00;99.90;;;;;;4834508;28;20487;-83
2021/12/17 09:05:12;;;;;;;29.00;17.27;;;11.00;99.90;;;;;;4828788;28;21759;-85
2021/12/17 09:07:38;;;;;;;27.97;17.17;;;11.10;99.90;;;;;;4866235;28;20486;-84
2021/12/17 09:10:08;;;;;;;30.57;19.57;;;11.20;99.90;;;;;;4876051;28;20462;-82
2021/12/17 09:12:36;;;;;;;28.97;17.57;;;11.10;99.90;;;;;;4922784;28;20484;-83
2021/12/17 09:15:10;;;;;;;28.43;17.53;;;11.10;99.90;;;;;;4934329;28;20450;-85
2021/12/17 09:17:40;;;;;;;33.47;20.30;;;10.90;99.90;;;;;;4932554;28;21792;-85
2021/12/17 09:20:10;;;;;;;30.97;20.83;;;11.10;99.90;;;;;;4925996;28;20511;-86
2021/12/17 09:22:40;;;;;;;35.70;23.27;;;11.40;99.90;;;;;;4920481;28;20495;-86
2021/12/17 09:25:07;;;;;;;36.67;20.67;;;11.30;99.90;;;;;;4927709;28;20451;-87
2021/12/17 09:27:38;;;;;;;32.73;20.50;;;11.30;99.90;;;;;;4924222;28;20473;-84
2021/12/17 09:30:08;;;;;;;30.27;19.30;;;11.10;99.90;;;;;;4922240;28;20565;-85
2021/12/17 09:32:37;;;;;;;29.90;19.17;;;11.00;99.90;;;;;;4921024;28;20812;-86
2021/12/17 09:38:14;;;;;;;32.03;19.10;;;11.10;99.90;;;;;;4890828;28;20722;-88
2021/12/17 09:40:50;;;;;;;34.10;21.93;;;11.30;99.90;;;;;;4919631;28;20479;-85
2021/12/17 09:43:19;;;;;;;31.90;21.53;;;11.50;99.90;;;;;;4916284;28;21332;-84
2021/12/17 09:45:46;;;;;;;37.10;23.77;;;11.50;99.90;;;;;;4917437;28;20868;-84
2021/12/17 09:48:14;;;;;;;39.47;20.77;;;11.40;99.90;;;;;;4918768;28;20457;-84
2021/12/17 09:50:56;;;;;;;39.33;20.90;;;11.40;99.90;;;;;;4919370;28;21308;-89
2021/12/17 09:53:26;;;;;;;36.17;20.90;;;11.30;99.90;;;;;;4914960;28;20727;-86
2021/12/17 09:56:08;;;;;;;41.77;21.63;;;11.30;99.90;;;;;;4917719;28;20565;-86
2021/12/17 09:58:48;;;;;;;33.37;20.80;;;11.30;99.90;;;;;;4919083;28;20470;-84
2021/12/17 10:01:42;;;;;;;34.87;18.43;;;11.10;99.90;;;;;;4916550;28;21346;-86
2021/12/17 10:04:28;;;;;;;30.13;20.77;;;11.10;99.90;;;;;;4913807;28;20482;-85
2021/12/17 10:07:19;;;;;;;34.73;21.43;;;11.20;99.90;;;;;;4921324;28;20566;-85
2021/12/17 10:10:12;;;;;;;33.03;20.90;;;11.10;99.90;;;;;;4923461;28;20492;-86
2021/12/17 10:12:41;;;;;;;32.67;19.93;;;11.00;99.90;;;;;;4932937;28;20473;-85
2021/12/17 10:15:22;;;;;;;33.80;20.50;;;11.20;99.90;;;;;;4932727;28;20556;-83
2021/12/17 10:18:03;;;;;;;30.30;20.87;;;11.30;99.90;;;;;;4933496;28;20504;-85
2021/12/17 10:21:11;;;;;;;32.70;20.77;;;11.50;99.90;;;;;;4933616;28;20539;-84
2021/12/17 10:23:45;;;;;;;33.57;22.07;;;11.50;99.90;;;;;;4893927;28;20486;-87
2021/12/17 10:26:14;;;;;;;31.13;20.53;;;11.40;99.90;;;;;;4857013;28;20571;-86
2021/12/17 10:29:04;;;;;;;37.63;21.73;;;11.50;99.90;;;;;;4885404;28;20458;-86
2021/12/17 10:31:37;;;;;;;34.13;20.10;;;11.70;99.90;;;;;;4907856;28;20829;-89
2021/12/17 10:34:18;;;;;;;35.87;20.23;;;11.60;99.90;;;;;;4950384;28;20461;-86
2021/12/17 10:37:00;;;;;;;35.60;22.97;;;11.40;99.90;;;;;;4957474;28;20476;-90
2021/12/17 10:39:31;;;;;;;35.90;22.13;;;11.40;99.90;;;;;;4959813;28;20563;-89
2021/12/17 10:42:01;;;;;;;42.07;22.67;;;11.30;99.90;;;;;;4954780;28;20471;-91
2021/12/17 10:44:33;;;;;;;42.97;25.20;;;11.30;99.90;;;;;;4960331;28;20486;-92
2021/12/17 10:47:31;;;;;;;46.50;27.50;;;11.40;99.90;;;;;;4958536;28;20887;-88
2021/12/17 10:50:03;;;;;;;50.23;25.43;;;11.50;99.90;;;;;;4958405;28;20469;-89
2021/12/17 10:53:01;;;;;;;45.83;28.43;;;11.50;99.90;;;;;;5038495;23;20455;-84
2021/12/17 10:55:36;;;;;;;47.50;27.07;;;11.50;99.90;;;;;;4952059;28;20825;-84
2021/12/17 10:58:10;;;;;;;48.67;27.00;;;11.50;99.90;;;;;;4958461;28;20456;-85
2021/12/17 11:00:56;;;;;;;42.27;26.97;;;11.40;99.90;;;;;;4964375;28;20468;-84
2021/12/17 11:04:01;;;;;;;49.53;27.70;;;11.40;99.90;;;;;;4967756;28;20590;-84
2021/12/17 11:06:46;;;;;;;50.77;29.17;;;11.30;99.90;;;;;;4964352;28;20570;-84
2021/12/17 11:09:50;;;;;;;56.23;29.63;;;11.30;99.90;;;;;;4968000;28;20555;-88
2021/12/17 11:12:25;;;;;;;46.80;27.40;;;11.00;99.90;;;;;;4950865;28;21806;-83
2021/12/17 11:15:21;;;;;;;39.20;24.03;;;10.80;99.90;;;;;;4962571;28;20954;-85
2021/12/17 11:17:57;;;;;;;47.50;26.10;;;10.70;99.90;;;;;;4954208;28;20473;-88
2021/12/17 11:20:27;;;;;;;46.60;25.80;;;10.80;99.90;;;;;;4956420;28;20458;-84
2021/12/17 11:22:57;;;;;;;46.87;26.67;;;10.80;99.90;;;;;;4947445;28;20459;-83
2021/12/17 11:25:28;;;;;;;41.40;24.33;;;10.80;99.90;;;;;;4956280;28;20488;-85
2021/12/17 11:28:08;;;;;;;44.10;25.80;;;10.80;99.90;;;;;;4955724;28;20961;-83
2021/12/17 11:30:42;;;;;;;43.90;25.93;;;10.70;99.90;;;;;;4934445;28;20449;-82
2021/12/17 11:33:27;;;;;;;43.27;23.73;;;10.70;99.90;;;;;;4939102;28;21215;-82
2021/12/17 11:35:55;;;;;;;40.77;24.20;;;10.80;99.90;;;;;;4947977;28;20468;-83
2021/12/17 11:38:30;;;;;;;44.70;27.27;;;11.30;99.90;;;;;;4948197;28;20488;-82
2021/12/17 11:41:35;;;;;;;45.53;26.70;;;11.60;99.90;;;;;;4956975;28;20480;-87
2021/12/17 11:44:40;;;;;;;45.50;26.43;;;11.80;99.90;;;;;;4936457;28;21146;-89
2021/12/17 11:47:13;;;;;;;50.60;28.20;;;11.60;99.90;;;;;;4989811;23;21428;-88
2021/12/17 11:49:53;;;;;;;43.37;22.83;;;11.80;99.90;;;;;;4924333;28;21219;-87
2021/12/17 11:52:35;;;;;;;46.97;24.33;;;11.70;99.90;;;;;;4912450;28;20475;-83
2021/12/17 11:55:33;;;;;;;43.73;23.40;;;11.70;99.90;;;;;;4950697;28;20468;-83
2021/12/17 11:58:10;;;;;;;46.30;24.20;;;11.80;99.90;;;;;;4962734;23;20531;-87
2021/12/17 12:01:03;;;;;;;44.77;23.20;;;11.80;99.90;;;;;;4946268;28;20437;-82
2021/12/17 12:03:53;;;;;;;42.53;23.90;;;11.70;99.90;;;;;;4947211;28;21334;-85
2021/12/17 12:06:34;;;;;;;37.93;22.60;;;11.60;99.90;;;;;;4941785;28;20554;-84
2021/12/17 12:09:05;;;;;;;41.57;23.03;;;11.30;99.90;;;;;;4946992;28;20500;-83
2021/12/17 12:11:32;;;;;;;42.93;24.80;;;11.20;99.90;;;;;;4967094;28;20484;-83
2021/12/17 12:14:35;;;;;;;41.67;23.73;;;11.20;99.90;;;;;;4937008;28;20824;-84
2021/12/17 12:17:03;;;;;;;46.00;24.20;;;11.50;99.90;;;;;;4953665;28;20508;-86
2021/12/17 12:34:10;;;;;;;40.77;23.00;;;11.20;99.90;;;;;;4924831;28;21584;-87
2021/12/17 12:37:17;;;;;;;43.50;23.37;;;11.20;99.90;;;;;;4936720;28;20480;-84
2021/12/17 12:39:57;;;;;;;37.30;21.77;;;11.20;99.90;;;;;;4848880;28;20489;-82
2021/12/17 12:42:31;;;;;;;47.00;26.80;;;11.20;99.90;;;;;;4847013;28;20465;-81
2021/12/17 12:45:00;;;;;;;40.73;22.67;;;11.20;99.90;;;;;;4884427;28;20490;-82
2021/12/17 12:47:47;;;;;;;44.27;25.00;;;11.30;99.90;;;;;;4845846;28;20491;-81
2021/12/17 12:50:22;;;;;;;41.10;22.93;;;11.30;99.90;;;;;;4942109;28;20453;-83
2021/12/17 12:52:56;;;;;;;39.83;22.90;;;11.30;99.90;;;;;;4923015;28;20936;-86
2021/12/17 12:55:27;;;;;;;47.07;24.07;;;11.60;99.90;;;;;;4925280;28;20477;-85
2021/12/17 12:58:05;;;;;;;38.73;23.10;;;11.60;99.90;;;;;;4920128;28;20485;-83
2021/12/17 13:00:46;;;;;;;37.73;23.27;;;11.60;99.90;;;;;;4925549;28;21127;-85
2021/12/17 13:03:25;;;;;;;36.00;21.43;;;11.50;99.90;;;;;;4919920;28;20597;-86
2021/12/17 13:05:53;;;;;;;38.23;22.73;;;11.50;99.90;;;;;;4924429;28;20568;-84
2021/12/17 13:08:22;;;;;;;43.13;23.30;;;11.60;99.90;;;;;;4925996;28;20452;-82
2021/12/17 13:11:01;;;;;;;41.47;24.50;;;11.60;99.90;;;;;;4925249;28;20467;-81
2021/12/17 13:13:38;;;;;;;42.37;24.20;;;11.50;99.90;;;;;;4917066;28;21001;-81
2021/12/17 13:16:23;;;;;;;35.77;21.60;;;11.50;99.90;;;;;;4922208;28;20515;-83
2021/12/17 13:24:16;;;;;;;35.40;19.93;;;11.40;99.90;;;;;;4919895;28;20996;-86
2021/12/17 13:26:58;;;;;;;33.50;20.27;;;11.40;99.90;;;;;;4927789;28;20473;-86
2021/12/17 13:29:33;;;;;;;33.97;20.77;;;11.30;99.90;;;;;;4927648;28;20484;-86
2021/12/17 13:32:03;;;;;;;48.10;32.27;;;11.70;99.90;;;;;;4928064;28;20473;-84
2021/12/17 13:34:59;;;;;;;38.60;22.47;;;11.90;99.90;;;;;;4926114;28;20485;-87
2021/12/17 13:37:34;;;;;;;42.90;27.37;;;12.20;99.90;;;;;;4932175;28;20464;-85
2021/12/17 13:40:05;;;;;;;38.73;23.90;;;12.30;99.90;;;;;;4929706;28;20475;-84
2021/12/17 13:42:37;;;;;;;38.80;22.10;;;12.20;99.90;;;;;;4934802;28;20846;-85
2021/12/17 13:48:22;;;;;;;31.27;17.30;;;12.10;99.90;;;;;;5095343;23;20496;-83
2021/12/17 13:50:50;;;;;;;23.40;14.27;;;12.20;99.90;;;;;;4947119;28;20487;-84
2021/12/17 13:53:17;;;;;;;21.20;14.93;;;12.30;99.90;;;;;;4943941;28;20452;-83
2021/12/17 13:56:26;;;;;;;17.27;12.10;;;12.10;99.90;;;;;;4961732;23;20567;-82
2021/12/17 13:59:33;;;;;;;;;;;;;;;;;;;;;
2021/12/17 14:02:47;;;;;;;15.83;10.50;;;12.00;99.90;;;;;;4965669;28;21082;-83
2021/12/17 14:06:01;;;;;;;14.17;9.17;;;12.20;99.90;;;;;;4961790;28;20489;-85
2021/12/17 14:09:10;;;;;;;13.40;10.20;;;12.20;99.90;;;;;;4942201;28;20503;-81
2021/12/17 14:12:10;;;;;;;10.53;8.07;;;12.00;99.90;;;;;;4939580;28;20456;-82
2021/12/17 14:15:16;;;;;;;11.70;7.50;;;12.00;99.90;;;;;;4941142;28;20455;-82
2021/12/17 14:17:46;;;;;;;9.70;7.57;;;11.90;99.90;;;;;;4947739;28;20482;-82
2021/12/17 14:20:26;;;;;;;9.10;6.87;;;12.10;99.90;;;;;;4948169;28;20466;-82
2021/12/17 14:23:04;;;;;;;10.03;7.57;;;12.10;99.90;;;;;;4866911;28;20510;-82
2021/12/17 14:25:53;;;;;;;8.20;7.13;;;12.10;99.90;;;;;;4962199;28;20567;-83
2021/12/17 14:28:40;;;;;;;10.33;7.80;;;12.10;99.90;;;;;;4958802;28;20468;-82
2021/12/17 14:31:10;;;;;;;18.10;13.80;;;12.10;99.90;;;;;;4955043;28;20614;-82
2021/12/17 14:33:56;;;;;;;7.90;6.30;;;12.20;99.90;;;;;;4949784;28;20479;-85
2021/12/17 14:37:02;;;;;;;11.70;7.30;;;12.30;99.90;;;;;;4965963;28;20551;-83
2021/12/17 14:39:43;;;;;;;9.93;6.60;;;12.30;99.90;;;;;;4926189;28;20585;-87
2021/12/17 14:42:13;;;;;;;8.10;6.07;;;12.20;99.90;;;;;;4950316;28;20456;-85
2021/12/17 14:44:53;;;;;;;8.03;6.00;;;12.20;99.90;;;;;;4949248;28;20487;-88
2021/12/17 14:48:09;;;;;;;5.23;4.73;;;12.10;99.90;;;;;;4947121;28;20480;-86
2021/12/17 15:00:23;;;;;;;6.10;5.20;;;12.00;99.90;;;;;;4924986;28;20553;-82
2021/12/17 15:03:00;;;;;;;6.27;5.00;;;11.70;99.90;;;;;;4858653;28;21573;-83
2021/12/17 15:05:33;;;;;;;6.30;5.60;;;11.70;99.90;;;;;;4861687;28;20837;-82
2021/12/17 15:08:02;;;;;;;8.57;6.13;;;11.80;99.90;;;;;;4932707;28;20896;-80
2021/12/17 15:14:08;;;;;;;7.47;5.50;;;11.80;99.90;;;;;;4889102;29;20455;-82
2021/12/17 15:16:42;;;;;;;8.00;5.10;;;12.10;99.90;;;;;;4873084;29;20487;-84
2021/12/17 15:19:09;;;;;;;6.03;5.40;;;11.90;99.90;;;;;;4888023;29;20538;-82
2021/12/17 15:21:36;;;;;;;6.90;5.30;;;11.80;99.90;;;;;;4887909;29;20459;-82
2021/12/17 15:24:03;;;;;;;10.20;5.20;;;11.80;99.90;;;;;;4870206;29;20517;-85
2021/12/17 15:26:40;;;;;;;7.87;5.07;;;11.80;99.90;;;;;;4877840;29;20575;-86
2021/12/17 15:29:17;;;;;;;5.90;4.70;;;11.80;99.90;;;;;;4872354;29;20466;-82
2021/12/17 15:31:53;;;;;;;5.83;5.00;;;11.70;99.90;;;;;;4877172;29;20467;-86
2021/12/17 15:34:25;;;;;;;6.10;4.47;;;11.80;99.90;;;;;;4876318;29;20458;-84
2021/12/17 15:43:42;;;;;;;6.13;5.10;;;11.90;99.90;;;;;;4940669;28;20461;-85
2021/12/17 15:46:12;;;;;;;6.93;5.10;;;12.10;99.90;;;;;;4940699;28;20859;-82
2021/12/17 15:48:38;;;;;;;8.60;6.13;;;12.10;99.90;;;;;;4952887;28;20464;-83
2021/12/17 15:51:16;;;;;;;8.33;5.80;;;11.70;99.90;;;;;;4948528;28;20540;-86
2021/12/17 15:53:58;;;;;;;6.70;5.00;;;11.80;99.90;;;;;;4961638;28;20464;-86
2021/12/17 15:56:35;;;;;;;6.20;5.30;;;11.70;99.90;;;;;;4942966;28;20499;-83
2021/12/17 15:59:03;;;;;;;9.07;6.17;;;11.50;99.90;;;;;;4949414;28;20476;-84
2021/12/17 16:01:30;;;;;;;5.63;4.80;;;11.60;99.90;;;;;;4948034;28;20788;-84
2021/12/17 16:03:56;;;;;;;11.33;6.37;;;11.50;99.90;;;;;;4942329;28;20468;-83
2021/12/17 16:06:26;;;;;;;9.20;6.67;;;11.40;99.90;;;;;;4937266;28;20494;-87
2021/12/17 16:08:56;;;;;;;6.33;5.20;;;11.70;99.90;;;;;;4945726;28;20454;-84
2021/12/17 16:18:14;;;;;;;9.30;5.57;;;11.60;99.90;;;;;;4865616;29;20563;-83
2021/12/17 16:21:02;;;;;;;8.23;6.10;;;11.70;99.90;;;;;;4956228;28;20478;-84
2021/12/17 16:23:57;;;;;;;10.23;6.90;;;11.80;99.90;;;;;;4938648;28;20488;-82
2021/12/17 16:26:33;;;;;;;8.57;7.00;;;11.60;99.90;;;;;;4949530;28;20483;-81
2021/12/17 16:29:08;;;;;;;8.17;6.23;;;11.60;99.90;;;;;;4938519;28;20517;-86
2021/12/17 16:31:37;;;;;;;8.27;6.93;;;11.60;99.90;;;;;;4949196;28;20449;-82
2021/12/17 16:34:13;;;;;;;8.03;6.60;;;11.50;99.90;;;;;;4943531;28;20458;-83
2021/12/17 16:36:58;;;;;;;9.67;7.03;;;11.40;99.90;;;;;;4947035;28;20602;-83
2021/12/17 16:39:28;;;;;;;9.07;7.10;;;11.40;99.90;;;;;;4944768;28;22029;-87
2021/12/17 16:42:21;;;;;;;10.40;6.93;;;11.30;99.90;;;;;;4945243;28;20467;-82
2021/12/17 16:48:17;;;;;;;10.40;8.00;;;11.20;99.90;;;;;;4849168;28;20460;-83
2021/12/17 16:50:53;;;;;;;12.90;8.70;;;11.10;99.90;;;;;;4945383;28;20456;-84
2021/12/17 16:53:29;;;;;;;11.60;8.33;;;11.00;99.90;;;;;;4937855;28;22498;-86